Charlton, Canada
Current Conditions -  °F | °C
As of 6:00 AM on Friday 19 Dec 2014 (Local Time) from CYXR Reporting Station
Overcast Overcast  
Wind Chill: -8°   Ceiling: 600
Heat Index:   Visibility: 9mi
Dew Point:   Wind: 8mph
Humidity: 92%   Direction: 310°NW
Pressure: 30.21"   Gusts: NA
Location:  47.82°N, 80°W
Report Text: CYXR 191100Z AUTO 31007KT 9SM OVC006 M15/M16 A3021 RMK SLP254
Loading
Personal Weather Stations






























Interactive Weather Map New forecast layout! Learn more

10-Day Weather Forecast

Advertisements
Track Severe Weather on mobile